Latest Weather Observations for Friendly Beaches

IDT60801

Issued at 5:02 pm EDT Wednesday 22 February 2017 (issued every 30 minutes, with the page automatically refreshed every 10 minutes)

About weather observations | Map of weather stations | Latest weather observations for TAS | Other Formats
Station Details ID: 092114 Name: FRIENDLY BEACHES Lat: -42.00 Lon: 148.28 Height: 55.0 m
Data from the previous 72 hours. | See also: Recent months at Friendly Beaches
Date/Time
EDT
Temp
°C
App
Temp
°C
Dew
Point
°C
Rel
Hum
%
Delta-T
°C
Wind Press
QNH
hPa
Press
MSL
hPa
Rain since
9am
mm
Dir  Spd
km/h
Gust
km/h
Spd
kts
Gust
kts
22/04:36pm 22.0 18.1 14.4 62 4.5 NNE 28 48 15 26 1012.7 1012.6 0.0
22/04:30pm 22.6 19.1 14.4 60 4.8 NNE 26 37 14 20 1012.7 1012.6 0.0
22/04:00pm 23.0 18.9 14.8 60 4.9 NNE 30 43 16 23 1013.1 1013.0 0.0
22/03:30pm 22.9 18.3 14.7 60 4.9 NNE 32 52 17 28 1013.5 1013.4 0.0
22/03:00pm 23.1 19.2 14.4 58 5.1 NNE 28 54 15 29 1013.9 1013.8 0.0
22/02:35pm 23.3 19.3 14.0 56 5.5 NNE 28 46 15 25 1014.2 1014.1 0.0
22/02:30pm 23.2 19.9 13.9 56 5.4 NNE 24 39 13 21 1014.3 1014.2 0.0
22/02:00pm 23.4 20.0 13.6 54 5.7 NNE 24 43 13 23 1014.9 1014.8 0.0
22/01:50pm 22.3 17.9 12.8 55 5.4 N 28 46 15 25 1015.0 1014.9 0.0
22/01:30pm 23.4 19.4 13.0 52 6.0 NNE 26 41 14 22 1014.9 1014.8 0.0
22/01:00pm 23.5 19.6 12.2 49 6.4 NNE 24 39 13 21 1015.4 1015.3 0.0
22/12:30pm 22.2 18.4 12.5 54 5.5 NNE 24 35 13 19 1015.7 1015.6 0.0
22/12:00pm 22.6 20.1 12.3 52 5.8 NNE 17 30 9 16 1016.3 1016.2 0.0
22/11:30am 20.6 18.4 12.1 58 4.8 NE 15 24 8 13 1016.8 1016.7 0.0
22/11:00am 20.7 17.7 11.9 57 4.9 NNE 19 30 10 16 1017.1 1017.0 0.0
22/10:30am 18.6 16.0 9.4 55 4.9 NNW 13 24 7 13 1017.5 1017.4 0.0
22/10:00am 19.0 17.3 11.1 60 4.3 NNE 11 15 6 8 1017.5 1017.4 0.0
22/09:30am 17.5 16.0 10.4 63 3.8 N 9 17 5 9 1017.6 1017.5 0.0
22/09:00am 17.2 15.8 10.8 66 3.4 N 9 15 5 8 1017.5 1017.4 0.0
22/08:30am 15.4 15.4 11.2 76 2.3 SW 2 6 1 3 1017.5 1017.4 0.0
22/08:00am 14.7 14.7 13.7 94 0.6 NNE 6 17 3 9 1017.4 1017.3 0.0
22/07:30am 14.3 - - - - N 7 17 4 9 1017.4 1017.3 0.0
22/07:00am 13.4 - - - - N 9 15 5 8 1017.2 1017.1 0.0
22/06:30am 13.3 12.3 13.3 100 0.0 N 11 17 6 9 1017.1 1017.0 0.0
22/06:00am 13.6 12.7 13.6 100 0.0 N 11 15 6 8 1017.2 1017.1 0.0
22/05:30am 13.7 13.1 13.5 99 0.1 N 9 13 5 7 1017.4 1017.3 0.0
22/05:00am 13.7 13.5 13.7 100 0.0 N 7 11 4 6 1017.5 1017.4 0.0
22/04:30am 14.2 13.3 12.6 90 0.9 N 9 11 5 6 1017.8 1017.7 0.0
22/04:00am 14.4 13.9 12.8 90 0.9 N 7 11 4 6 1017.9 1017.8 0.0
22/03:30am 15.1 14.0 13.0 87 1.2 NNE 11 17 6 9 1018.1 1018.0 0.0
22/03:00am 15.8 13.9 13.1 84 1.5 NE 15 24 8 13 1018.2 1018.1 0.0
22/02:30am 15.9 14.4 13.0 83 1.6 NE 13 20 7 11 1018.7 1018.6 0.0
22/02:00am 15.6 12.8 12.5 82 1.7 NE 19 28 10 15 1018.6 1018.5 0.0
22/01:30am 15.7 14.0 12.3 80 1.9 NE 13 22 7 12 1019.2 1019.1 0.0
22/01:00am 15.6 13.4 12.0 79 2.0 NE 15 24 8 13 1019.4 1019.3 0.0
22/12:30am 15.6 13.6 11.6 77 2.2 NE 13 24 7 13 1019.8 1019.7 0.0
22/12:00am 15.5 13.1 11.3 76 2.2 NE 15 20 8 11 1020.0 1019.8 0.0
 
Date/Time
EDT
Temp
°C
App
Temp
°C
Dew
Point
°C
Rel
Hum
%
Delta-T
°C
Wind Press
QNH
hPa
Press
MSL
hPa
Rain since
9am
mm
Dir  Spd
km/h
Gust
km/h
Spd
kts
Gust
kts
21/11:30pm 15.6 13.1 11.0 74 2.5 NE 15 26 8 14 1019.7 1019.6 0.0
21/11:00pm 15.7 12.8 11.1 74 2.5 NE 17 24 9 13 1019.7 1019.6 0.0
21/10:30pm 15.8 12.9 11.0 73 2.6 NE 17 24 9 13 1020.0 1019.8 0.0
21/10:00pm 15.8 13.0 11.2 74 2.5 NE 17 24 9 13 1020.0 1019.8 0.0
21/09:30pm 15.9 13.9 11.5 75 2.4 NE 13 22 7 12 1020.0 1019.8 0.0
21/09:00pm 15.8 13.3 11.0 73 2.6 NNE 15 24 8 13 1019.7 1019.6 0.0
21/08:30pm 15.8 13.3 11.0 73 2.6 NE 15 26 8 14 1019.3 1019.2 0.0
21/08:00pm 15.2 12.8 10.2 72 2.6 NE 13 20 7 11 1018.8 1018.7 0.0
21/07:30pm 15.8 13.0 10.1 69 3.0 NE 15 24 8 13 1018.4 1018.3 0.0
21/07:00pm 16.9 14.2 10.5 66 3.4 NE 15 24 8 13 1018.2 1018.1 0.0
21/06:30pm 17.7 14.4 9.6 59 4.3 NE 17 28 9 15 1018.0 1017.9 0.0
21/06:00pm 18.3 14.6 9.4 56 4.7 NE 19 30 10 16 1017.9 1017.8 0.0
21/05:30pm 18.9 15.5 9.1 53 5.1 NNE 17 26 9 14 1017.6 1017.5 0.0
21/05:00pm 19.1 15.2 8.7 51 5.4 NE 19 30 10 16 1017.5 1017.4 0.0
21/04:30pm 19.6 16.2 9.2 51 5.5 NE 17 24 9 13 1017.5 1017.4 0.0
21/04:00pm 19.8 16.8 9.1 50 5.6 NE 15 26 8 14 1017.5 1017.4 0.0
21/03:30pm 19.3 16.0 8.0 48 5.8 ENE 15 20 8 11 1017.6 1017.5 0.0
21/03:00pm 19.6 16.2 7.7 46 6.1 ENE 15 20 8 11 1017.7 1017.6 0.0
21/02:30pm 19.5 16.6 8.2 48 5.9 ENE 13 20 7 11 1017.8 1017.7 0.0
21/02:00pm 19.4 16.1 8.1 48 5.8 ENE 15 20 8 11 1017.8 1017.7 0.0
21/01:30pm 20.3 16.9 9.2 49 5.9 ESE 17 24 9 13 1017.5 1017.4 0.0
21/01:00pm 20.0 16.4 8.4 47 6.0 ESE 17 22 9 12 1017.4 1017.3 0.0
21/12:30pm 20.3 16.8 8.6 47 6.1 ESE 17 22 9 12 1017.5 1017.4 0.0
21/12:00pm 19.0 17.1 6.5 44 6.2 SE 6 11 3 6 1017.4 1017.3 0.0
21/11:30am 18.2 16.6 6.4 46 5.9 W 4 9 2 5 1017.7 1017.6 0.0
21/11:00am 17.0 14.4 5.9 48 5.4 WSW 9 15 5 8 1017.8 1017.7 0.0
21/10:30am 17.0 14.3 7.4 53 4.8 WSW 11 20 6 11 1018.0 1017.9 0.0
21/10:00am 16.1 12.8 6.5 53 4.7 WSW 13 24 7 13 1017.8 1017.7 0.0
21/09:30am 15.4 12.3 7.2 58 4.1 WSW 13 28 7 15 1017.7 1017.6 0.0
21/09:00am 14.4 11.7 7.5 63 3.4 W 11 17 6 9 1017.5 1017.4 5.8
21/08:30am 13.1 11.1 7.1 67 2.9 W 7 15 4 8 1017.3 1017.2 5.8
21/08:00am 11.8 9.5 7.5 75 2.1 W 9 13 5 7 1016.9 1016.8 5.8
21/07:30am 10.1 8.2 7.5 84 1.2 W 7 9 4 5 1016.7 1016.6 5.8
21/07:00am 9.6 6.9 7.5 87 1.0 WNW 11 13 6 7 1016.0 1015.9 5.8
21/06:30am 9.3 7.1 7.7 90 0.8 W 9 11 5 6 1015.5 1015.4 5.8
21/06:00am 9.9 7.8 8.2 89 0.8 W 9 15 5 8 1015.2 1015.1 5.8
21/05:30am 9.7 7.0 7.5 86 1.0 WSW 11 15 6 8 1014.8 1014.7 5.8
21/05:00am 9.3 7.1 7.9 91 0.7 W 9 13 5 7 1014.4 1014.3 5.8
21/04:30am 10.0 7.9 8.4 90 0.8 W 9 13 5 7 1013.9 1013.8 5.6
21/04:00am 9.8 7.7 8.4 91 0.7 W 9 11 5 6 1013.7 1013.6 5.6
21/03:30am 9.5 8.0 8.3 92 0.6 WSW 6 9 3 5 1013.4 1013.3 5.6
21/03:00am 9.9 8.3 8.7 92 0.6 W 7 9 4 5 1013.1 1013.0 5.6
21/02:30am 9.9 8.2 8.5 91 0.7 W 7 9 4 5 1012.9 1012.8 5.6
21/02:00am 10.4 8.7 8.5 88 0.9 W 7 9 4 5 1012.9 1012.8 5.6
21/01:30am 11.1 9.4 8.5 84 1.3 WSW 7 11 4 6 1012.9 1012.8 5.6
21/01:00am 11.6 9.2 8.5 81 1.5 W 11 20 6 11 1012.7 1012.6 5.6
21/12:30am 11.9 9.5 8.6 80 1.6 W 11 17 6 9 1012.6 1012.5 5.6
21/12:00am 12.2 9.9 8.9 80 1.7 WSW 11 17 6 9 1012.4 1012.3 5.6
 
Date/Time
EDT
Temp
°C
App
Temp
°C
Dew
Point
°C
Rel
Hum
%
Delta-T
°C
Wind Press
QNH
hPa
Press
MSL
hPa
Rain since
9am
mm
Dir  Spd
km/h
Gust
km/h
Spd
kts
Gust
kts
20/11:30pm 12.3 10.0 9.0 80 1.7 WSW 11 20 6 11 1012.3 1012.2 5.6
20/11:00pm 12.5 10.2 9.1 80 1.7 WSW 11 19 6 10 1012.0 1011.9 5.6
20/10:30pm 13.1 10.9 9.5 79 1.8 WSW 11 20 6 11 1011.7 1011.6 5.6
20/10:00pm 13.4 11.2 9.5 77 2.0 WSW 11 24 6 13 1011.5 1011.4 5.6
20/09:30pm 13.3 10.0 9.4 77 2.0 SW 17 26 9 14 1010.9 1010.8 5.6
20/09:00pm 13.5 11.0 9.6 77 2.0 SW 13 30 7 16 1010.5 1010.4 5.6
20/08:30pm 13.6 9.9 9.6 77 2.1 SW 19 35 10 19 1009.9 1009.8 5.6
20/08:00pm 13.7 11.1 10.7 82 1.6 SW 15 24 8 13 1009.4 1009.3 5.6
20/07:30pm 13.3 10.6 11.7 90 0.9 SW 17 28 9 15 1009.0 1008.9 5.6
20/07:00pm 15.0 13.2 10.8 76 2.2 SSW 11 19 6 10 1008.3 1008.2 5.4
20/06:30pm 15.9 12.7 11.1 73 2.6 SSW 19 30 10 16 1007.8 1007.7 5.4
20/06:00pm 15.2 12.4 11.2 77 2.1 SW 17 32 9 17 1007.5 1007.4 5.4
20/05:30pm 14.9 11.6 10.9 77 2.1 SSW 19 26 10 14 1007.4 1007.3 5.4
20/05:00pm 15.2 11.8 11.2 77 2.1 SW 20 33 11 18 1006.9 1006.7 5.4
20/04:30pm 15.4 12.7 11.6 78 2.1 SW 17 37 9 20 1006.7 1006.5 5.4
20/04:00pm 15.2 12.0 11.8 80 1.8 SW 20 35 11 19 1006.3 1006.1 5.4
20/03:30pm 15.2 12.3 12.3 83 1.6 SW 19 30 10 16 1006.2 1006.0 5.4
20/03:00pm 15.5 12.6 11.1 75 2.4 SSW 17 33 9 18 1006.2 1006.0 5.4
20/02:30pm 16.8 13.2 11.9 73 2.7 SSW 22 37 12 20 1006.0 1005.8 5.4
20/02:00pm 15.4 12.1 11.6 78 2.1 SW 20 39 11 21 1005.7 1005.5 5.4
20/01:30pm 15.2 12.8 12.5 84 1.5 SW 17 30 9 16 1005.8 1005.6 5.4
20/01:00pm 13.7 11.2 12.4 92 0.7 SW 17 30 9 16 1006.1 1005.9 5.4
20/12:30pm 13.1 11.4 12.3 95 0.4 WSW 13 24 7 13 1006.4 1006.2 5.4
20/12:00pm 12.3 10.8 11.8 97 0.3 W 11 17 6 9 1006.6 1006.4 5.4
20/11:30am 12.0 10.3 11.2 95 0.4 WSW 11 17 6 9 1006.9 1006.7 4.6
20/11:00am 12.2 10.5 11.1 93 0.6 SSW 11 19 6 10 1007.1 1006.9 1.8
20/10:30am 12.6 10.9 11.3 92 0.7 WSW 11 19 6 10 1006.5 1006.3 0.8
20/10:00am 12.1 10.0 11.0 93 0.6 WSW 13 22 7 12 1006.5 1006.3 0.8
20/09:30am 12.2 9.9 10.6 90 0.8 SW 13 24 7 13 1006.4 1006.2 0.2
20/09:00am 12.7 10.8 10.6 87 1.1 SW 11 20 6 11 1006.3 1006.1 4.4
20/08:30am 12.2 10.1 9.9 86 1.2 WSW 11 20 6 11 1006.1 1005.9 4.4
20/08:00am 11.7 9.2 9.6 87 1.1 WSW 13 22 7 12 1005.7 1005.5 4.4
20/07:30am 10.7 8.3 8.6 87 1.0 W 11 17 6 9 1005.7 1005.5 4.4
20/07:00am 10.1 7.2 8.0 87 1.0 WNW 13 17 7 9 1005.5 1005.3 4.4
20/06:30am 10.1 7.5 7.7 85 1.2 W 11 15 6 8 1005.5 1005.3 4.4
20/06:00am 10.0 6.9 7.3 83 1.3 WNW 13 17 7 9 1005.6 1005.4 4.4
20/05:30am 9.9 7.2 7.2 83 1.3 W 11 17 6 9 1005.6 1005.4 4.4
20/05:00am 9.6 6.7 6.3 80 1.5 WNW 11 15 6 8 1005.5 1005.3 4.4
20/04:30am 9.7 6.7 6.2 79 1.6 WNW 11 13 6 7 1005.5 1005.3 4.4
20/04:00am 9.6 6.3 6.5 81 1.5 WNW 13 17 7 9 1005.4 1005.2 4.4
20/03:30am 9.2 5.9 6.6 84 1.2 WNW 13 17 7 9 1005.2 1005.0 4.4
20/03:00am 9.3 6.4 6.7 84 1.2 WNW 11 13 6 7 1005.4 1005.2 4.4
20/02:30am 10.0 7.1 6.7 80 1.6 W 11 13 6 7 1005.6 1005.4 4.4
20/02:00am 10.4 7.6 6.9 79 1.7 WNW 11 15 6 8 1005.8 1005.6 4.4
20/01:30am 10.7 8.0 7.4 80 1.6 WNW 11 15 6 8 1005.7 1005.5 4.4
20/01:00am 10.7 8.2 8.1 84 1.3 WNW 11 13 6 7 1005.5 1005.3 4.4
20/12:30am 10.8 8.2 7.9 82 1.4 W 11 13 6 7 1005.2 1005.0 4.4
20/12:00am 10.7 8.5 7.9 83 1.4 W 9 17 5 9 1005.5 1005.3 4.4
 
Date/Time
EDT
Temp
°C
App
Temp
°C
Dew
Point
°C
Rel
Hum
%
Delta-T
°C
Wind Press
QNH
hPa
Press
MSL
hPa
Rain since
9am
mm
Dir  Spd
km/h
Gust
km/h
Spd
kts
Gust
kts
19/11:30pm 10.4 8.1 9.0 91 0.7 WNW 11 13 6 7 1005.5 1005.3 4.4
19/11:00pm 10.7 9.2 10.7 100 0.0 WNW 9 11 5 6 1005.8 1005.6 4.4
19/10:30pm 11.1 9.3 10.9 99 0.1 WNW 11 13 6 7 1005.8 1005.6 4.4
19/10:00pm 10.9 - - - - WNW 11 13 6 7 1005.7 1005.5 4.4
19/09:30pm 11.3 8.9 10.2 93 0.6 WNW 13 17 7 9 1005.5 1005.3 4.4
19/09:00pm 11.0 9.9 10.8 99 0.1 WNW 7 7 4 4 1005.1 1004.9 4.4
19/08:30pm 11.9 11.4 11.9 100 0.0 E 6 9 3 5 1004.7 1004.5 4.4
19/08:00pm 11.9 11.1 11.1 95 0.4 ENE 6 7 3 4 1004.4 1004.2 4.4
19/07:30pm 12.7 12.4 12.7 100 0.0 NE 6 7 3 4 1004.2 1004.0 4.4
19/07:00pm 12.5 - - - - NE 4 7 2 4 1003.9 1003.7 4.4
19/06:30pm 13.8 13.6 13.5 98 0.2 NNE 7 9 4 5 1003.8 1003.6 4.4
19/06:00pm 13.0 12.6 13.0 100 0.0 ESE 7 11 4 6 1003.7 1003.5 4.4
19/05:30pm 12.8 11.2 11.5 92 0.7 NNE 11 20 6 11 1004.2 1004.0 3.4

Other Formats:

Comma delimited format used in spreadsheet applications
http://www.bom.gov.au/fwo/IDT60801/IDT60801.94987.axf

JavaScript Object Notation format (JSON) in row-major order
http://www.bom.gov.au/fwo/IDT60801/IDT60801.94987.json